sensor_id;sensor_type;location;lat;lon;timestamp;P1;durP1;ratioP1;P2;durP2;ratioP2
79268;SDS011;68714;48.586;7.772;2023-05-03T00:00:54;4.88;;;3.38;;
79268;SDS011;68714;48.586;7.772;2023-05-03T00:03:20;5.13;;;4.13;;
79268;SDS011;68714;48.586;7.772;2023-05-03T00:05:47;5.18;;;3.67;;
79268;SDS011;68714;48.586;7.772;2023-05-03T00:08:13;8.02;;;5.15;;
79268;SDS011;68714;48.586;7.772;2023-05-03T00:10:39;5.50;;;3.80;;
79268;SDS011;68714;48.586;7.772;2023-05-03T00:13:05;5.75;;;3.88;;
79268;SDS011;68714;48.586;7.772;2023-05-03T00:15:30;6.00;;;4.00;;
79268;SDS011;68714;48.586;7.772;2023-05-03T00:17:57;6.38;;;3.78;;
79268;SDS011;68714;48.586;7.772;2023-05-03T00:20:23;7.80;;;4.57;;
79268;SDS011;68714;48.586;7.772;2023-05-03T00:22:49;11.02;;;3.97;;
79268;SDS011;68714;48.586;7.772;2023-05-03T00:25:15;5.55;;;3.97;;
79268;SDS011;68714;48.586;7.772;2023-05-03T00:27:40;4.53;;;3.70;;
79268;SDS011;68714;48.586;7.772;2023-05-03T00:30:06;5.43;;;3.80;;
79268;SDS011;68714;48.586;7.772;2023-05-03T00:32:33;6.18;;;3.70;;
79268;SDS011;68714;48.586;7.772;2023-05-03T00:34:59;5.20;;;3.35;;
79268;SDS011;68714;48.586;7.772;2023-05-03T00:37:24;6.78;;;3.90;;
79268;SDS011;68714;48.586;7.772;2023-05-03T00:39:50;8.60;;;3.50;;
79268;SDS011;68714;48.586;7.772;2023-05-03T00:42:16;5.82;;;4.18;;
79268;SDS011;68714;48.586;7.772;2023-05-03T00:44:41;8.02;;;4.53;;
79268;SDS011;68714;48.586;7.772;2023-05-03T00:47:07;7.30;;;4.72;;
79268;SDS011;68714;48.586;7.772;2023-05-03T00:49:33;5.55;;;3.95;;
79268;SDS011;68714;48.586;7.772;2023-05-03T00:51:59;4.68;;;4.03;;
79268;SDS011;68714;48.586;7.772;2023-05-03T00:54:28;3.80;;;2.55;;
79268;SDS011;68714;48.586;7.772;2023-05-03T00:56:54;5.53;;;3.47;;
79268;SDS011;68714;48.586;7.772;2023-05-03T00:59:21;5.38;;;3.70;;
79268;SDS011;68714;48.586;7.772;2023-05-03T01:01:47;6.70;;;3.28;;
79268;SDS011;68714;48.586;7.772;2023-05-03T01:11:59;5.03;;;3.80;;
79268;SDS011;68714;48.586;7.772;2023-05-03T01:17:34;6.88;;;3.90;;
79268;SDS011;68714;48.586;7.772;2023-05-03T01:20:06;5.95;;;3.65;;
79268;SDS011;68714;48.586;7.772;2023-05-03T01:25:06;5.75;;;3.45;;
79268;SDS011;68714;48.586;7.772;2023-05-03T01:27:33;6.35;;;4.28;;
79268;SDS011;68714;48.586;7.772;2023-05-03T01:29:59;4.70;;;3.35;;
79268;SDS011;68714;48.586;7.772;2023-05-03T01:32:25;5.07;;;3.55;;
79268;SDS011;68714;48.586;7.772;2023-05-03T01:35:03;7.40;;;4.65;;
79268;SDS011;68714;48.586;7.772;2023-05-03T01:37:39;6.25;;;4.03;;
79268;SDS011;68714;48.586;7.772;2023-05-03T01:40:07;4.50;;;3.60;;
79268;SDS011;68714;48.586;7.772;2023-05-03T01:42:35;6.40;;;3.42;;
79268;SDS011;68714;48.586;7.772;2023-05-03T01:45:01;4.32;;;3.53;;
79268;SDS011;68714;48.586;7.772;2023-05-03T01:47:28;4.78;;;3.30;;
79268;SDS011;68714;48.586;7.772;2023-05-03T01:49:54;4.38;;;3.50;;
79268;SDS011;68714;48.586;7.772;2023-05-03T01:52:20;5.53;;;3.80;;
79268;SDS011;68714;48.586;7.772;2023-05-03T01:54:46;5.65;;;3.95;;
79268;SDS011;68714;48.586;7.772;2023-05-03T01:57:11;7.13;;;4.15;;
79268;SDS011;68714;48.586;7.772;2023-05-03T01:59:36;6.13;;;4.40;;
79268;SDS011;68714;48.586;7.772;2023-05-03T02:02:02;8.40;;;3.85;;
79268;SDS011;68714;48.586;7.772;2023-05-03T02:04:27;8.48;;;5.05;;
79268;SDS011;68714;48.586;7.772;2023-05-03T02:06:54;6.00;;;4.40;;
79268;SDS011;68714;48.586;7.772;2023-05-03T02:09:19;5.38;;;3.80;;
79268;SDS011;68714;48.586;7.772;2023-05-03T02:11:45;5.57;;;4.43;;
79268;SDS011;68714;48.586;7.772;2023-05-03T02:14:10;10.60;;;4.82;;
79268;SDS011;68714;48.586;7.772;2023-05-03T02:16:36;6.80;;;4.28;;
79268;SDS011;68714;48.586;7.772;2023-05-03T02:19:02;6.95;;;3.92;;
79268;SDS011;68714;48.586;7.772;2023-05-03T02:21:27;8.55;;;4.45;;
79268;SDS011;68714;48.586;7.772;2023-05-03T02:23:53;5.95;;;4.15;;
79268;SDS011;68714;48.586;7.772;2023-05-03T02:26:18;8.68;;;3.58;;
79268;SDS011;68714;48.586;7.772;2023-05-03T02:28:45;7.05;;;4.20;;
79268;SDS011;68714;48.586;7.772;2023-05-03T02:31:10;6.03;;;4.60;;
79268;SDS011;68714;48.586;7.772;2023-05-03T02:33:37;8.18;;;4.55;;
79268;SDS011;68714;48.586;7.772;2023-05-03T02:36:03;11.20;;;5.65;;
79268;SDS011;68714;48.586;7.772;2023-05-03T02:38:29;10.40;;;5.75;;
79268;SDS011;68714;48.586;7.772;2023-05-03T02:40:55;13.98;;;5.72;;
79268;SDS011;68714;48.586;7.772;2023-05-03T02:43:21;8.00;;;5.20;;
79268;SDS011;68714;48.586;7.772;2023-05-03T02:45:47;7.38;;;5.28;;
79268;SDS011;68714;48.586;7.772;2023-05-03T02:48:12;7.70;;;5.40;;
79268;SDS011;68714;48.586;7.772;2023-05-03T02:50:38;6.68;;;4.70;;
79268;SDS011;68714;48.586;7.772;2023-05-03T02:53:03;8.23;;;4.93;;
79268;SDS011;68714;48.586;7.772;2023-05-03T02:55:29;8.43;;;5.20;;
79268;SDS011;68714;48.586;7.772;2023-05-03T02:57:55;7.75;;;4.90;;
79268;SDS011;68714;48.586;7.772;2023-05-03T03:00:21;7.95;;;5.05;;
79268;SDS011;68714;48.586;7.772;2023-05-03T03:02:46;7.28;;;4.80;;
79268;SDS011;68714;48.586;7.772;2023-05-03T03:05:12;6.38;;;4.70;;
79268;SDS011;68714;48.586;7.772;2023-05-03T03:07:37;9.15;;;5.28;;
79268;SDS011;68714;48.586;7.772;2023-05-03T03:10:04;7.95;;;4.78;;
79268;SDS011;68714;48.586;7.772;2023-05-03T03:12:30;7.10;;;5.10;;
79268;SDS011;68714;48.586;7.772;2023-05-03T03:14:55;10.50;;;4.97;;
79268;SDS011;68714;48.586;7.772;2023-05-03T03:17:21;6.88;;;5.47;;
79268;SDS011;68714;48.586;7.772;2023-05-03T03:19:46;7.88;;;6.35;;
79268;SDS011;68714;48.586;7.772;2023-05-03T03:22:12;7.82;;;4.53;;
79268;SDS011;68714;48.586;7.772;2023-05-03T03:24:37;8.13;;;4.75;;
79268;SDS011;68714;48.586;7.772;2023-05-03T03:27:03;7.15;;;4.63;;
79268;SDS011;68714;48.586;7.772;2023-05-03T03:29:30;7.72;;;4.45;;
79268;SDS011;68714;48.586;7.772;2023-05-03T03:31:56;11.45;;;4.93;;
79268;SDS011;68714;48.586;7.772;2023-05-03T03:34:21;6.03;;;4.25;;
79268;SDS011;68714;48.586;7.772;2023-05-03T03:36:47;9.00;;;5.45;;
79268;SDS011;68714;48.586;7.772;2023-05-03T03:39:12;5.90;;;3.80;;
79268;SDS011;68714;48.586;7.772;2023-05-03T03:41:38;7.38;;;4.85;;
79268;SDS011;68714;48.586;7.772;2023-05-03T03:44:03;6.80;;;4.68;;
79268;SDS011;68714;48.586;7.772;2023-05-03T03:46:29;6.60;;;4.60;;
79268;SDS011;68714;48.586;7.772;2023-05-03T03:48:54;7.63;;;5.03;;
79268;SDS011;68714;48.586;7.772;2023-05-03T03:51:20;7.80;;;4.20;;
79268;SDS011;68714;48.586;7.772;2023-05-03T03:53:45;5.78;;;4.43;;
79268;SDS011;68714;48.586;7.772;2023-05-03T03:56:11;9.30;;;4.95;;
79268;SDS011;68714;48.586;7.772;2023-05-03T03:58:36;10.00;;;5.20;;
79268;SDS011;68714;48.586;7.772;2023-05-03T04:01:01;6.90;;;4.47;;
79268;SDS011;68714;48.586;7.772;2023-05-03T04:03:28;6.65;;;4.72;;
79268;SDS011;68714;48.586;7.772;2023-05-03T04:05:53;8.00;;;4.72;;
79268;SDS011;68714;48.586;7.772;2023-05-03T04:08:19;9.32;;;4.97;;
79268;SDS011;68714;48.586;7.772;2023-05-03T04:10:44;6.72;;;4.30;;
79268;SDS011;68714;48.586;7.772;2023-05-03T04:13:10;9.38;;;4.95;;
79268;SDS011;68714;48.586;7.772;2023-05-03T04:15:35;8.00;;;4.60;;
79268;SDS011;68714;48.586;7.772;2023-05-03T04:18:01;6.97;;;3.65;;
79268;SDS011;68714;48.586;7.772;2023-05-03T04:20:27;7.57;;;4.53;;
79268;SDS011;68714;48.586;7.772;2023-05-03T04:22:54;7.32;;;4.32;;
79268;SDS011;68714;48.586;7.772;2023-05-03T04:25:19;11.20;;;4.70;;
79268;SDS011;68714;48.586;7.772;2023-05-03T04:27:44;11.18;;;5.90;;
79268;SDS011;68714;48.586;7.772;2023-05-03T04:30:11;6.43;;;4.30;;
79268;SDS011;68714;48.586;7.772;2023-05-03T04:32:39;7.03;;;4.50;;
79268;SDS011;68714;48.586;7.772;2023-05-03T04:35:06;11.35;;;4.50;;
79268;SDS011;68714;48.586;7.772;2023-05-03T04:37:38;8.77;;;5.22;;
79268;SDS011;68714;48.586;7.772;2023-05-03T04:40:05;5.78;;;4.38;;
79268;SDS011;68714;48.586;7.772;2023-05-03T04:42:38;6.57;;;4.32;;
79268;SDS011;68714;48.586;7.772;2023-05-03T04:45:07;8.05;;;4.80;;
79268;SDS011;68714;48.586;7.772;2023-05-03T04:47:34;7.65;;;4.22;;
79268;SDS011;68714;48.586;7.772;2023-05-03T04:50:01;6.05;;;4.18;;
79268;SDS011;68714;48.586;7.772;2023-05-03T04:52:27;11.02;;;4.65;;
79268;SDS011;68714;48.586;7.772;2023-05-03T04:54:53;6.78;;;4.50;;
79268;SDS011;68714;48.586;7.772;2023-05-03T04:57:18;6.47;;;4.00;;
79268;SDS011;68714;48.586;7.772;2023-05-03T04:59:44;7.32;;;4.82;;
79268;SDS011;68714;48.586;7.772;2023-05-03T05:02:10;7.05;;;4.88;;
79268;SDS011;68714;48.586;7.772;2023-05-03T05:04:36;7.43;;;4.07;;
79268;SDS011;68714;48.586;7.772;2023-05-03T05:07:02;8.13;;;3.90;;
79268;SDS011;68714;48.586;7.772;2023-05-03T05:09:27;9.65;;;5.15;;
79268;SDS011;68714;48.586;7.772;2023-05-03T05:11:55;6.55;;;3.92;;
79268;SDS011;68714;48.586;7.772;2023-05-03T05:14:21;4.93;;;3.97;;
79268;SDS011;68714;48.586;7.772;2023-05-03T05:16:46;7.72;;;4.88;;
79268;SDS011;68714;48.586;7.772;2023-05-03T05:19:12;6.32;;;4.13;;
79268;SDS011;68714;48.586;7.772;2023-05-03T05:21:37;9.65;;;4.80;;
79268;SDS011;68714;48.586;7.772;2023-05-03T05:24:03;5.38;;;4.00;;
79268;SDS011;68714;48.586;7.772;2023-05-03T05:26:29;6.22;;;3.65;;
79268;SDS011;68714;48.586;7.772;2023-05-03T05:28:55;9.10;;;5.07;;
79268;SDS011;68714;48.586;7.772;2023-05-03T05:31:20;9.73;;;4.80;;
79268;SDS011;68714;48.586;7.772;2023-05-03T05:33:46;8.68;;;4.90;;
79268;SDS011;68714;48.586;7.772;2023-05-03T05:36:12;6.03;;;3.90;;
79268;SDS011;68714;48.586;7.772;2023-05-03T07:59:09;6.55;;;5.15;;
79268;SDS011;68714;48.586;7.772;2023-05-03T08:01:36;6.82;;;5.55;;
79268;SDS011;68714;48.586;7.772;2023-05-03T08:04:02;9.23;;;6.75;;
79268;SDS011;68714;48.586;7.772;2023-05-03T08:06:28;8.20;;;5.55;;
79268;SDS011;68714;48.586;7.772;2023-05-03T08:08:53;10.55;;;6.10;;
79268;SDS011;68714;48.586;7.772;2023-05-03T08:11:19;8.07;;;5.75;;
79268;SDS011;68714;48.586;7.772;2023-05-03T08:13:45;6.72;;;5.07;;
79268;SDS011;68714;48.586;7.772;2023-05-03T08:16:11;8.02;;;5.82;;
79268;SDS011;68714;48.586;7.772;2023-05-03T08:18:37;13.35;;;5.72;;
79268;SDS011;68714;48.586;7.772;2023-05-03T08:21:04;6.30;;;4.93;;
79268;SDS011;68714;48.586;7.772;2023-05-03T08:23:33;6.40;;;5.15;;
79268;SDS011;68714;48.586;7.772;2023-05-03T08:25:58;8.80;;;5.13;;
79268;SDS011;68714;48.586;7.772;2023-05-03T08:28:24;6.25;;;5.25;;
79268;SDS011;68714;48.586;7.772;2023-05-03T08:30:50;6.20;;;4.88;;
79268;SDS011;68714;48.586;7.772;2023-05-03T08:33:16;8.32;;;4.75;;
79268;SDS011;68714;48.586;7.772;2023-05-03T08:35:41;6.50;;;5.10;;
79268;SDS011;68714;48.586;7.772;2023-05-03T08:38:07;9.68;;;4.07;;
79268;SDS011;68714;48.586;7.772;2023-05-03T08:40:32;9.73;;;5.13;;
79268;SDS011;68714;48.586;7.772;2023-05-03T08:43:10;6.20;;;4.55;;
79268;SDS011;68714;48.586;7.772;2023-05-03T08:45:39;8.40;;;4.83;;
79268;SDS011;68714;48.586;7.772;2023-05-03T08:48:06;6.38;;;4.00;;
79268;SDS011;68714;48.586;7.772;2023-05-03T08:50:32;8.82;;;5.25;;
79268;SDS011;68714;48.586;7.772;2023-05-03T08:53:01;7.30;;;4.97;;
79268;SDS011;68714;48.586;7.772;2023-05-03T08:55:28;11.60;;;5.47;;
79268;SDS011;68714;48.586;7.772;2023-05-03T08:57:53;5.35;;;4.20;;
79268;SDS011;68714;48.586;7.772;2023-05-03T09:00:25;9.85;;;4.63;;
79268;SDS011;68714;48.586;7.772;2023-05-03T09:02:55;9.48;;;5.22;;
79268;SDS011;68714;48.586;7.772;2023-05-03T09:08:02;6.10;;;5.03;;
79268;SDS011;68714;48.586;7.772;2023-05-03T09:10:30;8.15;;;5.68;;
79268;SDS011;68714;48.586;7.772;2023-05-03T09:12:57;6.82;;;5.30;;
79268;SDS011;68714;48.586;7.772;2023-05-03T10:46:31;6.55;;;4.82;;
79268;SDS011;68714;48.586;7.772;2023-05-03T10:49:14;5.25;;;4.10;;
79268;SDS011;68714;48.586;7.772;2023-05-03T10:51:44;6.53;;;4.50;;
79268;SDS011;68714;48.586;7.772;2023-05-03T10:54:11;6.43;;;4.07;;
79268;SDS011;68714;48.586;7.772;2023-05-03T10:56:53;5.97;;;5.00;;
79268;SDS011;68714;48.586;7.772;2023-05-03T10:59:20;9.80;;;6.65;;
79268;SDS011;68714;48.586;7.772;2023-05-03T11:01:47;7.90;;;5.63;;
79268;SDS011;68714;48.586;7.772;2023-05-03T11:04:17;6.88;;;4.90;;
79268;SDS011;68714;48.586;7.772;2023-05-03T11:06:53;8.02;;;5.47;;
79268;SDS011;68714;48.586;7.772;2023-05-03T11:09:20;6.60;;;4.80;;
79268;SDS011;68714;48.586;7.772;2023-05-03T11:11:55;4.90;;;3.80;;
79268;SDS011;68714;48.586;7.772;2023-05-03T11:14:21;7.50;;;4.25;;
79268;SDS011;68714;48.586;7.772;2023-05-03T11:16:46;6.70;;;4.93;;
79268;SDS011;68714;48.586;7.772;2023-05-03T11:19:14;7.70;;;3.97;;
79268;SDS011;68714;48.586;7.772;2023-05-03T11:21:40;9.50;;;4.68;;
79268;SDS011;68714;48.586;7.772;2023-05-03T11:24:07;5.38;;;4.07;;
79268;SDS011;68714;48.586;7.772;2023-05-03T11:26:36;6.20;;;4.10;;
79268;SDS011;68714;48.586;7.772;2023-05-03T11:29:01;6.53;;;4.95;;
79268;SDS011;68714;48.586;7.772;2023-05-03T11:31:27;5.18;;;3.97;;
79268;SDS011;68714;48.586;7.772;2023-05-03T11:33:53;7.43;;;4.05;;
79268;SDS011;68714;48.586;7.772;2023-05-03T11:36:20;6.57;;;4.53;;
79268;SDS011;68714;48.586;7.772;2023-05-03T11:38:45;7.38;;;4.35;;
79268;SDS011;68714;48.586;7.772;2023-05-03T11:41:16;6.40;;;4.18;;
79268;SDS011;68714;48.586;7.772;2023-05-03T11:43:42;7.43;;;4.25;;
79268;SDS011;68714;48.586;7.772;2023-05-03T11:46:17;6.75;;;4.25;;
79268;SDS011;68714;48.586;7.772;2023-05-03T11:48:45;5.93;;;4.05;;
79268;SDS011;68714;48.586;7.772;2023-05-03T11:51:11;5.88;;;4.20;;
79268;SDS011;68714;48.586;7.772;2023-05-03T11:53:38;7.95;;;4.38;;
79268;SDS011;68714;48.586;7.772;2023-05-03T11:56:11;5.55;;;3.95;;
79268;SDS011;68714;48.586;7.772;2023-05-03T12:01:17;5.22;;;3.88;;
79268;SDS011;68714;48.586;7.772;2023-05-03T12:03:43;5.00;;;3.42;;
79268;SDS011;68714;48.586;7.772;2023-05-03T12:06:08;5.00;;;3.28;;
79268;SDS011;68714;48.586;7.772;2023-05-03T12:08:36;4.53;;;3.20;;
79268;SDS011;68714;48.586;7.772;2023-05-03T12:11:01;5.75;;;4.05;;
79268;SDS011;68714;48.586;7.772;2023-05-03T12:13:29;7.00;;;3.35;;
79268;SDS011;68714;48.586;7.772;2023-05-03T12:15:57;4.78;;;2.58;;
79268;SDS011;68714;48.586;7.772;2023-05-03T12:18:26;4.93;;;3.42;;
79268;SDS011;68714;48.586;7.772;2023-05-03T12:20:55;4.63;;;2.95;;
79268;SDS011;68714;48.586;7.772;2023-05-03T12:23:22;8.07;;;4.22;;
79268;SDS011;68714;48.586;7.772;2023-05-03T12:25:48;9.07;;;3.83;;
79268;SDS011;68714;48.586;7.772;2023-05-03T12:28:16;5.53;;;3.33;;
79268;SDS011;68714;48.586;7.772;2023-05-03T12:30:42;5.80;;;3.50;;
79268;SDS011;68714;48.586;7.772;2023-05-03T12:33:07;8.20;;;3.30;;
79268;SDS011;68714;48.586;7.772;2023-05-03T12:35:33;4.63;;;3.33;;
79268;SDS011;68714;48.586;7.772;2023-05-03T12:38:00;6.10;;;3.63;;
79268;SDS011;68714;48.586;7.772;2023-05-03T12:40:28;5.55;;;3.25;;
79268;SDS011;68714;48.586;7.772;2023-05-03T12:42:53;8.98;;;3.70;;
79268;SDS011;68714;48.586;7.772;2023-05-03T12:45:22;4.18;;;2.72;;
79268;SDS011;68714;48.586;7.772;2023-05-03T12:47:47;4.30;;;2.72;;
79268;SDS011;68714;48.586;7.772;2023-05-03T12:50:13;7.03;;;3.75;;
79268;SDS011;68714;48.586;7.772;2023-05-03T12:52:38;6.28;;;3.42;;
79268;SDS011;68714;48.586;7.772;2023-05-03T12:55:04;7.15;;;3.08;;
79268;SDS011;68714;48.586;7.772;2023-05-03T12:57:31;4.47;;;2.88;;
79268;SDS011;68714;48.586;7.772;2023-05-03T12:59:56;4.72;;;3.38;;
79268;SDS011;68714;48.586;7.772;2023-05-03T13:02:22;4.90;;;3.30;;
79268;SDS011;68714;48.586;7.772;2023-05-03T13:04:51;6.50;;;2.67;;
79268;SDS011;68714;48.586;7.772;2023-05-03T13:07:23;4.40;;;2.60;;
79268;SDS011;68714;48.586;7.772;2023-05-03T13:09:52;5.22;;;2.55;;
79268;SDS011;68714;48.586;7.772;2023-05-03T13:12:18;5.85;;;3.63;;
79268;SDS011;68714;48.586;7.772;2023-05-03T13:14:47;5.40;;;3.10;;
79268;SDS011;68714;48.586;7.772;2023-05-03T13:17:13;5.70;;;3.33;;
79268;SDS011;68714;48.586;7.772;2023-05-03T13:19:40;5.93;;;3.50;;
79268;SDS011;68714;48.586;7.772;2023-05-03T13:22:06;4.60;;;3.38;;
79268;SDS011;68714;48.586;7.772;2023-05-03T13:24:32;6.97;;;3.60;;
79268;SDS011;68714;48.586;7.772;2023-05-03T13:26:57;5.60;;;3.10;;
79268;SDS011;68714;48.586;7.772;2023-05-03T13:29:23;4.75;;;3.25;;
79268;SDS011;68714;48.586;7.772;2023-05-03T13:31:48;6.88;;;2.92;;
79268;SDS011;68714;48.586;7.772;2023-05-03T13:34:14;7.53;;;3.72;;
79268;SDS011;68714;48.586;7.772;2023-05-03T13:36:39;6.45;;;3.40;;
79268;SDS011;68714;48.586;7.772;2023-05-03T13:39:05;7.10;;;3.25;;
79268;SDS011;68714;48.586;7.772;2023-05-03T13:41:33;5.20;;;2.97;;
79268;SDS011;68714;48.586;7.772;2023-05-03T13:43:59;5.85;;;3.33;;
79268;SDS011;68714;48.586;7.772;2023-05-03T13:46:24;4.35;;;3.00;;
79268;SDS011;68714;48.586;7.772;2023-05-03T13:48:50;6.15;;;3.38;;
79268;SDS011;68714;48.586;7.772;2023-05-03T13:51:16;4.20;;;2.80;;
79268;SDS011;68714;48.586;7.772;2023-05-03T13:53:42;5.28;;;3.08;;
79268;SDS011;68714;48.586;7.772;2023-05-03T13:56:07;5.32;;;3.10;;
79268;SDS011;68714;48.586;7.772;2023-05-03T13:58:33;7.32;;;3.00;;
79268;SDS011;68714;48.586;7.772;2023-05-03T14:01:00;5.28;;;3.05;;
79268;SDS011;68714;48.586;7.772;2023-05-03T14:03:25;6.95;;;2.67;;
79268;SDS011;68714;48.586;7.772;2023-05-03T14:05:51;7.90;;;3.40;;
79268;SDS011;68714;48.586;7.772;2023-05-03T14:08:17;4.57;;;3.17;;
79268;SDS011;68714;48.586;7.772;2023-05-03T14:10:42;6.53;;;3.47;;
79268;SDS011;68714;48.586;7.772;2023-05-03T14:13:08;6.80;;;2.75;;
79268;SDS011;68714;48.586;7.772;2023-05-03T14:15:37;7.13;;;4.18;;
79268;SDS011;68714;48.586;7.772;2023-05-03T14:18:03;4.85;;;2.80;;
79268;SDS011;68714;48.586;7.772;2023-05-03T14:20:29;4.07;;;2.25;;
79268;SDS011;68714;48.586;7.772;2023-05-03T14:22:54;4.75;;;2.72;;
79268;SDS011;68714;48.586;7.772;2023-05-03T14:25:20;6.32;;;2.72;;
79268;SDS011;68714;48.586;7.772;2023-05-03T14:27:46;4.45;;;2.47;;
79268;SDS011;68714;48.586;7.772;2023-05-03T14:30:11;5.60;;;2.92;;
79268;SDS011;68714;48.586;7.772;2023-05-03T14:32:37;4.90;;;3.00;;
79268;SDS011;68714;48.586;7.772;2023-05-03T14:35:02;5.90;;;3.42;;
79268;SDS011;68714;48.586;7.772;2023-05-03T14:37:29;4.13;;;2.42;;
79268;SDS011;68714;48.586;7.772;2023-05-03T14:39:54;4.78;;;3.20;;
79268;SDS011;68714;48.586;7.772;2023-05-03T14:42:20;4.35;;;2.80;;
79268;SDS011;68714;48.586;7.772;2023-05-03T14:44:45;5.22;;;2.92;;
79268;SDS011;68714;48.586;7.772;2023-05-03T14:47:11;4.50;;;2.63;;
79268;SDS011;68714;48.586;7.772;2023-05-03T14:49:36;2.83;;;1.65;;
79268;SDS011;68714;48.586;7.772;2023-05-03T14:52:08;5.10;;;2.38;;
79268;SDS011;68714;48.586;7.772;2023-05-03T14:54:33;4.32;;;2.38;;
79268;SDS011;68714;48.586;7.772;2023-05-03T14:57:00;3.03;;;1.60;;
79268;SDS011;68714;48.586;7.772;2023-05-03T14:59:26;3.85;;;1.95;;
79268;SDS011;68714;48.586;7.772;2023-05-03T15:01:52;5.90;;;2.90;;
79268;SDS011;68714;48.586;7.772;2023-05-03T15:04:17;4.82;;;2.08;;
79268;SDS011;68714;48.586;7.772;2023-05-03T15:06:43;2.90;;;2.00;;
79268;SDS011;68714;48.586;7.772;2023-05-03T15:09:08;5.05;;;2.58;;
79268;SDS011;68714;48.586;7.772;2023-05-03T15:11:36;4.53;;;2.38;;
79268;SDS011;68714;48.586;7.772;2023-05-03T15:14:01;4.22;;;2.53;;
79268;SDS011;68714;48.586;7.772;2023-05-03T15:16:29;3.45;;;2.03;;
79268;SDS011;68714;48.586;7.772;2023-05-03T15:18:55;3.40;;;2.15;;
79268;SDS011;68714;48.586;7.772;2023-05-03T15:21:20;4.63;;;2.55;;
79268;SDS011;68714;48.586;7.772;2023-05-03T15:23:46;4.22;;;1.90;;
79268;SDS011;68714;48.586;7.772;2023-05-03T15:28:41;5.78;;;1.80;;
79268;SDS011;68714;48.586;7.772;2023-05-03T15:31:06;4.88;;;2.20;;
79268;SDS011;68714;48.586;7.772;2023-05-03T15:33:38;4.78;;;2.20;;
79268;SDS011;68714;48.586;7.772;2023-05-03T15:36:08;5.75;;;2.10;;
79268;SDS011;68714;48.586;7.772;2023-05-03T15:38:37;6.15;;;2.38;;
79268;SDS011;68714;48.586;7.772;2023-05-03T15:41:04;5.43;;;1.90;;
79268;SDS011;68714;48.586;7.772;2023-05-03T15:43:30;2.88;;;1.75;;
79268;SDS011;68714;48.586;7.772;2023-05-03T15:45:56;3.65;;;2.00;;
79268;SDS011;68714;48.586;7.772;2023-05-03T15:48:21;3.38;;;2.10;;
79268;SDS011;68714;48.586;7.772;2023-05-03T15:50:47;4.70;;;2.10;;
79268;SDS011;68714;48.586;7.772;2023-05-03T15:53:13;4.32;;;2.28;;
79268;SDS011;68714;48.586;7.772;2023-05-03T15:55:39;3.10;;;1.73;;
79268;SDS011;68714;48.586;7.772;2023-05-03T15:58:05;5.28;;;2.10;;
79268;SDS011;68714;48.586;7.772;2023-05-03T16:00:31;3.30;;;2.28;;
79268;SDS011;68714;48.586;7.772;2023-05-03T16:02:57;4.53;;;2.08;;
79268;SDS011;68714;48.586;7.772;2023-05-03T16:05:23;4.95;;;2.38;;
79268;SDS011;68714;48.586;7.772;2023-05-03T16:07:48;2.85;;;1.83;;
79268;SDS011;68714;48.586;7.772;2023-05-03T16:10:14;3.55;;;1.63;;
79268;SDS011;68714;48.586;7.772;2023-05-03T16:12:40;3.90;;;1.90;;
79268;SDS011;68714;48.586;7.772;2023-05-03T16:15:06;3.50;;;1.83;;
79268;SDS011;68714;48.586;7.772;2023-05-03T16:17:33;5.28;;;1.75;;
79268;SDS011;68714;48.586;7.772;2023-05-03T16:20:01;3.58;;;2.20;;
79268;SDS011;68714;48.586;7.772;2023-05-03T16:22:29;6.40;;;2.03;;
79268;SDS011;68714;48.586;7.772;2023-05-03T16:24:55;4.90;;;2.15;;
79268;SDS011;68714;48.586;7.772;2023-05-03T16:27:20;3.78;;;2.30;;
79268;SDS011;68714;48.586;7.772;2023-05-03T16:29:45;2.38;;;1.80;;
79268;SDS011;68714;48.586;7.772;2023-05-03T16:32:11;4.50;;;2.05;;
79268;SDS011;68714;48.586;7.772;2023-05-03T16:34:36;3.60;;;2.20;;
79268;SDS011;68714;48.586;7.772;2023-05-03T16:37:02;3.45;;;1.90;;
79268;SDS011;68714;48.586;7.772;2023-05-03T16:39:27;3.00;;;1.35;;
79268;SDS011;68714;48.586;7.772;2023-05-03T17:25:18;3.70;;;1.98;;
79268;SDS011;68714;48.586;7.772;2023-05-03T17:27:46;5.28;;;1.98;;
79268;SDS011;68714;48.586;7.772;2023-05-03T19:08:09;4.72;;;1.98;;
79268;SDS011;68714;48.586;7.772;2023-05-03T19:10:34;2.75;;;1.90;;
79268;SDS011;68714;48.586;7.772;2023-05-03T19:13:00;4.13;;;1.90;;
79268;SDS011;68714;48.586;7.772;2023-05-03T19:15:27;3.58;;;1.40;;
79268;SDS011;68714;48.586;7.772;2023-05-03T19:17:52;3.25;;;1.40;;
79268;SDS011;68714;48.586;7.772;2023-05-03T19:20:18;3.83;;;1.80;;
79268;SDS011;68714;48.586;7.772;2023-05-03T19:22:43;3.40;;;2.00;;
79268;SDS011;68714;48.586;7.772;2023-05-03T19:25:10;3.58;;;1.75;;
79268;SDS011;68714;48.586;7.772;2023-05-03T19:27:35;2.55;;;1.70;;
79268;SDS011;68714;48.586;7.772;2023-05-03T19:30:01;2.42;;;1.60;;
79268;SDS011;68714;48.586;7.772;2023-05-03T19:32:27;5.32;;;1.92;;
79268;SDS011;68714;48.586;7.772;2023-05-03T19:34:52;4.43;;;2.08;;
79268;SDS011;68714;48.586;7.772;2023-05-03T19:37:18;22.25;;;2.30;;
79268;SDS011;68714;48.586;7.772;2023-05-03T19:39:43;2.33;;;1.42;;
79268;SDS011;68714;48.586;7.772;2023-05-03T19:42:09;3.65;;;1.67;;
79268;SDS011;68714;48.586;7.772;2023-05-03T19:44:34;3.33;;;1.90;;
79268;SDS011;68714;48.586;7.772;2023-05-03T19:47:00;5.53;;;2.03;;
79268;SDS011;68714;48.586;7.772;2023-05-03T19:49:25;5.18;;;2.90;;
79268;SDS011;68714;48.586;7.772;2023-05-03T19:51:51;3.10;;;1.88;;
79268;SDS011;68714;48.586;7.772;2023-05-03T19:54:19;2.88;;;1.42;;
79268;SDS011;68714;48.586;7.772;2023-05-03T19:56:46;3.75;;;2.00;;
79268;SDS011;68714;48.586;7.772;2023-05-03T19:59:11;2.67;;;1.73;;
79268;SDS011;68714;48.586;7.772;2023-05-03T20:01:37;3.80;;;1.70;;
79268;SDS011;68714;48.586;7.772;2023-05-03T20:04:02;3.65;;;1.75;;
79268;SDS011;68714;48.586;7.772;2023-05-03T20:06:29;3.63;;;1.73;;
79268;SDS011;68714;48.586;7.772;2023-05-03T20:08:55;3.35;;;1.80;;
79268;SDS011;68714;48.586;7.772;2023-05-03T20:11:22;4.03;;;2.05;;
79268;SDS011;68714;48.586;7.772;2023-05-03T20:13:48;2.55;;;1.52;;
79268;SDS011;68714;48.586;7.772;2023-05-03T20:16:15;4.63;;;1.90;;
79268;SDS011;68714;48.586;7.772;2023-05-03T20:18:40;3.67;;;1.48;;
79268;SDS011;68714;48.586;7.772;2023-05-03T20:21:06;4.18;;;1.52;;
79268;SDS011;68714;48.586;7.772;2023-05-03T20:23:32;7.13;;;1.70;;
79268;SDS011;68714;48.586;7.772;2023-05-03T20:25:57;4.28;;;1.40;;
79268;SDS011;68714;48.586;7.772;2023-05-03T20:28:22;2.80;;;1.40;;
79268;SDS011;68714;48.586;7.772;2023-05-03T20:30:48;2.15;;;1.30;;
79268;SDS011;68714;48.586;7.772;2023-05-03T20:33:13;3.15;;;1.65;;
79268;SDS011;68714;48.586;7.772;2023-05-03T20:35:40;3.88;;;1.50;;
79268;SDS011;68714;48.586;7.772;2023-05-03T20:38:05;3.28;;;1.75;;
79268;SDS011;68714;48.586;7.772;2023-05-03T20:40:31;3.70;;;1.48;;
79268;SDS011;68714;48.586;7.772;2023-05-03T20:42:58;4.05;;;1.58;;
79268;SDS011;68714;48.586;7.772;2023-05-03T20:45:25;2.78;;;1.38;;
79268;SDS011;68714;48.586;7.772;2023-05-03T20:47:51;6.80;;;1.60;;
79268;SDS011;68714;48.586;7.772;2023-05-03T20:50:17;2.72;;;1.42;;
79268;SDS011;68714;48.586;7.772;2023-05-03T20:52:43;2.65;;;1.30;;
79268;SDS011;68714;48.586;7.772;2023-05-03T20:55:08;2.97;;;1.45;;
79268;SDS011;68714;48.586;7.772;2023-05-03T20:57:38;3.63;;;1.42;;
79268;SDS011;68714;48.586;7.772;2023-05-03T21:00:04;3.75;;;1.50;;
79268;SDS011;68714;48.586;7.772;2023-05-03T21:02:31;4.93;;;1.80;;
79268;SDS011;68714;48.586;7.772;2023-05-03T21:04:56;4.22;;;1.35;;
79268;SDS011;68714;48.586;7.772;2023-05-03T21:07:22;4.05;;;1.50;;
79268;SDS011;68714;48.586;7.772;2023-05-03T21:09:47;3.95;;;1.58;;
79268;SDS011;68714;48.586;7.772;2023-05-03T21:12:12;4.45;;;1.40;;
79268;SDS011;68714;48.586;7.772;2023-05-03T21:14:38;4.25;;;1.52;;
79268;SDS011;68714;48.586;7.772;2023-05-03T21:17:04;2.28;;;1.30;;